ミールヌイ の空港の天気 - METARとTAF

Mirny ( UERR / MJZ ) - ロシア ミールヌイ
飛行場実況気象(Metar)
観測時間05/29 08:00 YAKT (05/28 23:00 UTC)
風向・風速東北東 3m/s
視程10km以上
天気現象
なし
気温8℃
湿度42%
気圧1012hPa
METARUERR 282300Z 07003MPS CAVOK 08/M04 Q1012 R07/CLRD60 NOSIG RMK QFE729/0972
過去の天気等 Google飛行場航空写真 Wunderground天気予報

過去48時間のMETAR

飛行場予報(TAF)
発表時間: 5/29 08:00 YAKT (5/28 23:00 UTC)
予報対象時間: 29日9時 YAKT ~ 30日9時 YAKT
風向・風速北東 3m/s 瞬間風速 8m/s
視程10km以上
全天の4割程度の雲 雲底高度 910m
TAF UERR 282300Z 2900/2924 05003G08MPS 9999 SCT030